Latest Weather Observations for Essendon Airport

IDV60901

Issued at 12:31 am EST Saturday 23 May 2015 (issued every 10 minutes, with the page automatically refreshed every 10 minutes)

About weather observations | Map of Melbourne area stations | Latest observations for Melbourne area | Other Formats
Station Details ID: 086038 Name: ESSENDON AIRPORT Lat: -37.73 Lon: 144.91 Height: 78.4 m
Data from the previous 72 hours. | See also: Recent months at Essendon Airport
Date/Time
EST
Tmp

°C
App
Tmp
°C
Dew
Point
°C
Rel
Hum
%
Delta-T

°C
Wind Press
QNH
hPa
Press
MSL
hPa
Rain
since
9 am
mm
Dir
 
Spd
km/h
Gust
km/h
Spd
kts
Gust
kts
23/12:30am 11.1 6.9 5.8 70 2.4 SSE 17 24 9 13 1032.0 1032.0 0.0
23/12:00am 11.3 7.3 6.8 74 2.1 S 17 20 9 11 1032.3 1032.3 0.0
 
Date/Time
EST
Tmp

°C
App
Tmp
°C
Dew
Point
°C
Rel
Hum
%
Delta-T

°C
Wind Press
QNH
hPa
Press
MSL
hPa
Rain
since
9 am
mm
Dir
 
Spd
km/h
Gust
km/h
Spd
kts
Gust
kts
22/11:30pm 11.2 8.3 6.5 73 2.2 SSW 11 13 6 7 1032.2 1032.2 0.0
22/11:00pm 11.1 7.8 6.3 72 2.2 SSE 13 19 7 10 1032.0 1032.0 0.0
22/10:30pm 11.2 7.9 6.3 72 2.3 SSE 13 19 7 10 1032.1 1032.1 0.0
22/10:00pm 11.2 6.7 6.1 71 2.4 SSE 19 24 10 13 1032.0 1032.0 0.0
22/09:30pm 11.3 7.3 6.6 73 2.2 S 17 22 9 12 1031.9 1031.9 0.0
22/09:00pm 11.3 8.0 6.4 72 2.3 S 13 19 7 10 1031.8 1031.8 0.0
22/08:30pm 11.3 7.2 6.2 71 2.4 S 17 24 9 13 1031.7 1031.7 0.0
22/08:00pm 11.3 7.2 6.0 70 2.5 SSE 17 22 9 12 1031.6 1031.6 0.0
22/07:30pm 11.3 7.1 5.6 68 2.6 SSE 17 26 9 14 1031.4 1031.4 0.0
22/07:00pm 11.4 6.0 6.3 71 2.4 SSW 24 33 13 18 1031.2 1031.2 0.0
22/06:30pm 11.7 7.3 7.2 74 2.2 S 20 30 11 16 1030.8 1030.8 0.0
22/06:00pm 11.7 7.2 6.0 68 2.7 SSE 19 28 10 15 1030.6 1030.6 0.0
22/05:30pm 11.8 7.2 6.5 70 2.5 SSE 20 28 11 15 1030.5 1030.5 0.0
22/05:00pm 11.8 7.3 6.1 68 2.7 SSW 19 28 10 15 1030.3 1030.3 0.0
22/04:30pm 11.8 6.2 5.4 65 3.0 SSW 24 33 13 18 1030.2 1030.2 0.0
22/04:00pm 12.0 6.0 6.9 71 2.4 S 28 33 15 18 1030.3 1030.3 0.0
22/03:30pm 12.3 7.0 7.0 70 2.6 S 24 32 13 17 1030.1 1030.1 0.0
22/03:00pm 12.8 7.7 7.7 71 2.5 S 24 33 13 18 1029.7 1029.7 0.0
22/02:30pm 12.7 7.3 8.0 73 2.3 S 26 35 14 19 1029.4 1029.4 0.0
22/02:00pm 12.5 7.7 9.0 79 1.8 SSW 24 33 13 18 1029.2 1029.2 0.0
22/01:30pm 13.7 9.4 9.2 74 2.3 S 22 32 12 17 1029.2 1029.2 0.0
22/01:00pm 14.0 9.7 9.4 74 2.3 S 22 32 12 17 1029.3 1029.3 0.0
22/12:30pm 12.9 8.6 7.8 71 2.5 S 20 28 11 15 1029.3 1029.3 0.0
22/12:00pm 13.0 8.7 7.7 70 2.6 S 20 26 11 14 1029.5 1029.5 0.0
22/11:30am 12.8 8.6 7.5 70 2.6 S 19 28 10 15 1029.7 1029.7 0.0
22/11:00am 13.1 8.8 8.0 71 2.5 S 20 28 11 15 1029.9 1029.9 0.0
22/10:00am 12.3 9.0 8.2 76 2.0 S 15 20 8 11 1029.7 1029.7 0.0
22/09:30am 12.2 9.3 9.8 85 1.2 S 15 20 8 11 1029.7 1029.7 0.0
22/09:00am 11.0 9.3 9.8 92 0.6 S 9 13 5 7 1029.5 1029.5 0.6
22/08:30am 10.6 9.5 9.8 95 0.4 SSW 6 7 3 4 1029.4 1029.4 0.6
22/08:00am 10.5 8.6 9.1 91 0.7 SSE 9 13 5 7 1029.1 1029.1 0.6
22/07:30am 10.1 8.3 9.5 96 0.3 SSE 9 13 5 7 1028.7 1028.7 0.6
22/07:00am 9.8 8.0 9.3 97 0.2 SSE 9 11 5 6 1028.2 1028.3 0.6
22/06:30am 10.0 8.3 9.9 99 0.1 SSE 9 15 5 8 1027.9 1028.0 0.6
22/06:00am 9.8 8.1 9.7 99 0.0 S 9 11 5 6 1027.6 1027.7 0.6
22/05:30am 9.4 7.2 9.4 100 0.0 SW 11 13 6 7 1027.4 1027.5 0.6
22/05:00am 9.4 7.6 9.3 99 0.0 S 9 13 5 7 1027.1 1027.2 0.6
22/04:30am 9.3 7.4 9.2 99 0.0 S 9 13 5 7 1026.8 1026.9 0.6
22/04:00am 9.7 7.6 9.6 99 0.0 SE 11 15 6 8 1026.6 1026.7 0.6
22/03:30am 10.3 7.9 10.1 99 0.1 SE 13 17 7 9 1026.6 1026.7 0.6
22/03:00am 10.8 8.5 10.6 99 0.1 S 13 20 7 11 1026.7 1026.8 0.6
22/02:30am 10.8 8.5 10.6 99 0.1 SSE 13 15 7 8 1026.6 1026.7 0.6
22/02:00am 11.0 9.6 10.8 99 0.1 S 9 13 5 7 1026.4 1026.5 0.6
22/01:34am 11.1 9.3 10.9 99 0.1 SSE 11 13 6 7 1026.3 1026.4 0.6
22/01:30am 11.1 9.3 10.9 99 0.1 SSE 11 13 6 7 1026.3 1026.4 0.6
22/01:00am 11.1 8.9 10.9 99 0.1 S 13 17 7 9 1026.1 1026.2 0.6
22/12:30am 11.1 8.9 10.9 99 0.1 S 13 17 7 9 1026.2 1026.3 0.6
22/12:00am 10.4 8.8 10.2 99 0.1 SSW 9 11 5 6 1026.1 1026.2 0.6
 
Date/Time
EST
Tmp

°C
App
Tmp
°C
Dew
Point
°C
Rel
Hum
%
Delta-T

°C
Wind Press
QNH
hPa
Press
MSL
hPa
Rain
since
9 am
mm
Dir
 
Spd
km/h
Gust
km/h
Spd
kts
Gust
kts
21/11:30pm 10.4 8.5 10.4 100 0.0 SSW 11 15 6 8 1026.0 1026.1 0.6
21/11:00pm 10.8 9.7 10.8 100 0.0 SSW 7 11 4 6 1026.0 1026.1 0.6
21/10:46pm 10.8 9.4 10.8 100 0.0 SW 9 11 5 6 1026.0 1026.1 0.6
21/10:30pm 10.8 9.4 10.8 100 0.0 SSW 9 13 5 7 1026.0 1026.1 0.6
21/10:00pm 10.7 9.8 10.7 100 0.0 SW 6 9 3 5 1025.7 1025.8 0.6
21/09:32pm 10.5 9.0 10.5 100 0.0 SW 9 11 5 6 1025.6 1025.7 0.6
21/09:30pm 10.5 9.0 10.5 100 0.0 SW 9 11 5 6 1025.5 1025.6 0.6
21/09:21pm 10.8 10.3 10.8 100 0.0 SW 4 7 2 4 1025.5 1025.6 0.6
21/09:00pm 10.7 10.9 10.7 100 0.0 CALM 0 0 0 0 1025.3 1025.4 0.6
21/08:30pm 10.6 8.7 10.6 100 0.0 WNW 11 15 6 8 1024.9 1025.0 0.6
21/08:18pm 10.8 9.9 10.8 100 0.0 WNW 6 7 3 4 1024.9 1025.0 0.6
21/08:00pm 10.8 9.4 10.8 100 0.0 W 9 11 5 6 1024.9 1025.0 0.6
21/07:52pm 10.8 9.7 10.8 100 0.0 W 7 9 4 5 1024.9 1025.0 0.6
21/07:31pm 10.8 9.7 10.8 100 0.0 WNW 7 9 4 5 1024.8 1024.9 0.4
21/07:30pm 10.8 9.7 10.8 100 0.0 WNW 7 9 4 5 1024.7 1024.8 0.4
21/07:17pm 10.8 9.4 10.8 100 0.0 WNW 9 13 5 7 1024.7 1024.8 0.4
21/07:00pm 10.8 8.9 10.6 99 0.1 W 11 13 6 7 1024.6 1024.7 0.4
21/06:41pm 10.7 8.8 10.5 99 0.1 WSW 11 15 6 8 1024.4 1024.5 0.4
21/06:30pm 10.7 8.8 10.5 99 0.1 WSW 11 15 6 8 1024.5 1024.6 0.4
21/06:01pm 11.0 7.5 10.2 95 0.4 SSW 19 26 10 14 1024.3 1024.4 0.4
21/06:00pm 11.0 7.5 10.2 95 0.4 SSW 19 26 10 14 1024.3 1024.4 0.4
21/05:30pm 11.8 8.0 9.2 84 1.3 SSW 19 24 10 13 1023.9 1024.0 0.4
21/05:00pm 11.8 8.8 9.2 84 1.3 SW 15 19 8 10 1023.7 1023.8 0.4
21/04:30pm 11.9 9.8 9.8 87 1.1 SSW 11 15 6 8 1023.6 1023.7 0.4
21/04:00pm 11.6 9.9 9.9 89 0.9 SSW 9 13 5 7 1023.6 1023.7 0.4
21/03:30pm 11.2 8.8 9.9 92 0.7 SSW 13 20 7 11 1023.5 1023.6 0.4
21/03:23pm 11.3 9.4 10.4 94 0.5 SSW 11 17 6 9 1023.5 1023.6 0.4
21/03:11pm 11.2 7.8 10.6 96 0.3 SSW 19 26 10 14 1023.4 1023.5 0.4
21/03:00pm 11.9 8.7 9.8 87 1.1 SSW 17 24 9 13 1023.2 1023.3 0.4
21/02:40pm 11.9 8.5 9.1 83 1.4 S 17 24 9 13 1023.1 1023.2 0.4
21/02:30pm 11.8 8.1 9.4 85 1.2 SSW 19 22 10 12 1023.0 1023.1 0.4
21/02:12pm 12.2 9.0 10.1 87 1.1 SSW 17 20 9 11 1023.0 1023.1 0.4
21/02:00pm 12.3 9.6 10.2 87 1.1 SSW 15 20 8 11 1023.0 1023.1 0.4
21/01:30pm 11.7 9.6 9.8 88 1.0 SSW 11 17 6 9 1023.2 1023.3 0.4
21/01:27pm 11.8 9.4 10.2 90 0.8 SW 13 17 7 9 1023.2 1023.3 0.4
21/01:09pm 11.0 7.4 9.8 92 0.6 SSW 19 24 10 13 1023.3 1023.4 0.4
21/01:00pm 11.3 8.0 9.7 90 0.8 SW 17 24 9 13 1023.3 1023.4 0.4
21/12:30pm 11.1 9.4 9.7 91 0.7 W 9 11 5 6 1023.6 1023.7 0.4
21/12:00pm 10.7 8.7 10.2 97 0.3 WSW 11 15 6 8 1023.9 1024.0 0.4
21/11:30am 10.3 8.7 10.1 99 0.1 W 9 11 5 6 1024.2 1024.3 0.2
21/11:00am 10.3 7.1 10.1 99 0.1 WSW 17 22 9 12 1024.3 1024.4 0.2
21/10:32am 9.8 6.6 9.8 100 0.0 W 17 20 9 11 1024.1 1024.2 0.2
21/10:30am 9.9 6.7 9.9 100 0.0 W 17 20 9 11 1024.1 1024.2 0.2
21/10:00am 9.6 7.1 9.6 100 0.0 WSW 13 17 7 9 1024.1 1024.2 0.2
21/09:57am 9.6 7.5 9.6 100 0.0 WSW 11 15 6 8 1024.1 1024.2 0.2
21/09:51am 9.4 7.2 9.4 100 0.0 WSW 11 15 6 8 1024.0 1024.1 0.2
21/09:43am 9.3 6.7 9.3 100 0.0 WSW 13 15 7 8 1024.0 1024.1 0.2
21/09:30am 9.3 6.7 9.3 100 0.0 WSW 13 17 7 9 1023.9 1024.0 0.2
21/09:00am 9.2 6.6 9.2 100 0.0 SW 13 17 7 9 1023.8 1023.9 7.0
21/08:30am 9.0 5.9 9.0 100 0.0 WSW 15 19 8 10 1023.4 1023.5 6.8
21/08:00am 8.9 5.8 8.8 99 0.0 WSW 15 20 8 11 1023.0 1023.1 6.4
21/07:31am 8.9 6.2 8.8 99 0.0 WSW 13 15 7 8 1022.6 1022.7 6.0
21/07:30am 8.9 6.2 8.8 99 0.0 WSW 13 15 7 8 1022.6 1022.7 6.0
21/07:07am 8.9 6.5 8.8 99 0.0 WSW 11 15 6 8 1022.4 1022.5 6.0
21/07:00am 8.9 6.5 8.8 99 0.0 WSW 11 15 6 8 1022.3 1022.4 5.8
21/06:30am 8.9 6.2 8.8 99 0.0 SW 13 17 7 9 1022.0 1022.0 5.6
21/06:00am 9.0 6.3 8.9 99 0.0 WSW 13 15 7 8 1021.8 1021.8 5.0
21/05:43am 9.1 6.0 9.0 99 0.0 WSW 15 17 8 9 1021.6 1021.6 4.6
21/05:30am 9.1 6.0 9.0 99 0.0 WSW 15 19 8 10 1021.5 1021.5 4.2
21/05:24am 9.2 6.5 9.1 99 0.0 WSW 13 17 7 9 1021.4 1021.4 4.2
21/05:00am 9.3 7.4 9.2 99 0.0 SW 9 13 5 7 1021.2 1021.2 3.8
21/04:30am 9.4 6.4 9.3 99 0.0 SSW 15 20 8 11 1020.9 1020.9 3.4
21/04:17am 9.6 7.0 9.5 99 0.0 SW 13 17 7 9 1020.8 1020.8 3.2
21/04:00am 9.6 6.7 9.5 99 0.0 SW 15 19 8 10 1020.6 1020.6 3.0
21/03:56am 9.6 6.7 9.5 99 0.0 WSW 15 19 8 10 1020.6 1020.6 3.0
21/03:30am 9.7 6.8 9.6 99 0.1 WSW 15 19 8 10 1020.5 1020.5 3.0
21/03:06am 9.6 7.0 9.5 99 0.0 WSW 13 17 7 9 1020.5 1020.5 3.0
21/03:00am 9.6 7.0 9.5 99 0.0 WSW 13 15 7 8 1020.5 1020.5 3.0
21/02:43am 9.6 7.0 9.5 99 0.0 WSW 13 19 7 10 1020.6 1020.6 2.8
21/02:30am 9.6 6.6 9.3 98 0.1 SW 15 19 8 10 1020.5 1020.5 2.8
21/02:00am 9.7 5.7 9.1 96 0.3 SW 20 28 11 15 1020.4 1020.4 2.8
21/01:42am 9.9 5.5 8.8 93 0.5 SW 22 30 12 16 1020.2 1020.2 2.8
21/01:30am 10.0 5.7 9.2 95 0.4 SW 22 32 12 17 1020.2 1020.2 2.8
21/01:27am 10.0 5.7 9.2 95 0.4 SW 22 32 12 17 1020.2 1020.2 2.8
21/01:22am 10.0 5.7 9.4 96 0.3 SW 22 32 12 17 1020.1 1020.1 2.8
21/01:00am 10.2 5.6 9.7 97 0.3 SW 24 30 13 16 1020.0 1020.0 2.8
21/12:30am 10.2 6.0 9.9 98 0.2 SW 22 33 12 18 1019.9 1019.9 2.8
21/12:00am 10.3 6.2 10.0 98 0.2 SW 22 30 12 16 1019.6 1019.6 2.8
 
Date/Time
EST
Tmp

°C
App
Tmp
°C
Dew
Point
°C
Rel
Hum
%
Delta-T

°C
Wind Press
QNH
hPa
Press
MSL
hPa
Rain
since
9 am
mm
Dir
 
Spd
km/h
Gust
km/h
Spd
kts
Gust
kts
20/11:44pm 10.2 5.7 10.0 99 0.1 SW 24 35 13 19 1019.4 1019.4 2.8
20/11:30pm 10.4 5.6 10.2 99 0.1 SW 26 39 14 21 1019.3 1019.3 2.8
20/11:23pm 10.4 5.6 10.2 99 0.1 SW 26 39 14 21 1019.2 1019.2 2.8
20/11:00pm 10.3 5.5 10.3 100 0.0 SW 26 35 14 19 1019.0 1019.0 2.8
20/10:30pm 10.6 6.3 10.6 100 0.0 SW 24 37 13 20 1018.9 1018.9 2.6
20/10:14pm 10.6 5.8 10.4 99 0.1 SW 26 35 14 19 1018.7 1018.7 2.6
20/10:11pm 10.6 5.8 10.4 99 0.1 SW 26 35 14 19 1018.7 1018.7 2.6
20/10:00pm 10.6 5.4 10.4 99 0.1 SW 28 43 15 23 1018.6 1018.6 2.6
20/09:30pm 10.8 5.3 10.6 99 0.1 SW 30 41 16 22 1018.2 1018.2 2.6
20/09:00pm 11.0 5.6 10.8 99 0.1 WSW 30 37 16 20 1017.9 1017.9 2.6
20/08:48pm 11.0 5.6 10.8 99 0.1 WSW 30 48 16 26 1017.7 1017.7 2.6
20/08:30pm 11.3 5.4 11.1 99 0.1 SW 33 44 18 24 1017.4 1017.4 2.6
20/08:00pm 11.6 6.3 11.4 99 0.1 WSW 30 44 16 24 1016.8 1016.8 2.4
20/07:30pm 11.7 6.9 11.5 99 0.1 W 28 43 15 23 1016.3 1016.3 2.4
20/07:00pm 11.8 7.7 11.6 99 0.1 W 24 35 13 19 1015.7 1015.7 2.2
20/06:30pm 11.9 8.5 11.4 97 0.3 WNW 20 26 11 14 1015.0 1015.1 1.2
20/06:09pm 12.5 7.4 10.7 89 0.9 WNW 28 35 15 19 1014.6 1014.7 0.4
20/06:00pm 12.9 8.1 10.3 84 1.3 WNW 26 35 14 19 1014.4 1014.5 0.4
20/05:55pm 13.1 8.3 10.3 83 1.5 WNW 26 35 14 19 1014.4 1014.5 0.4
20/05:30pm 13.4 8.6 10.2 81 1.7 WNW 26 37 14 20 1013.9 1014.0 0.4
20/05:00pm 13.6 7.6 10.2 80 1.8 WNW 32 43 17 23 1013.5 1013.6 0.4
20/04:30pm 14.3 9.6 10.7 79 1.9 WNW 26 33 14 18 1012.8 1012.9 0.4
20/04:00pm 14.2 10.1 11.4 83 1.5 WNW 24 33 13 18 1012.5 1012.6 0.4
20/03:30pm 14.2 10.1 11.5 84 1.4 NW 24 41 13 22 1012.1 1012.2 0.4
20/03:00pm 15.9 10.9 9.6 66 3.3 NNW 26 39 14 21 1011.5 1011.6 0.0
20/02:30pm 16.4 11.4 9.6 64 3.6 NNW 26 39 14 21 1011.3 1011.3 0.0
20/02:00pm 16.4 11.7 9.1 62 3.8 NNW 24 33 13 18 1011.1 1011.1 0.0
20/01:30pm 16.5 12.4 8.7 60 4.0 N 20 30 11 16 1011.0 1011.0 0.0
20/01:00pm 16.7 12.0 9.1 61 3.9 N 24 35 13 19 1011.2 1011.2 0.0
20/12:30pm 17.0 11.8 8.9 59 4.2 NNW 26 33 14 18 1011.1 1011.1 0.0
20/12:00pm 16.5 11.2 8.5 59 4.1 NNW 26 35 14 19 1011.5 1011.6 0.0
20/11:30am 16.5 10.5 8.5 59 4.1 NW 30 39 16 21 1011.8 1011.9 0.0
20/11:00am 16.5 10.2 9.0 61 3.9 NW 32 43 17 23 1011.7 1011.8 0.0
20/10:30am 16.7 11.1 8.9 60 4.0 NW 28 41 15 22 1011.2 1011.2 0.0
20/10:00am 16.2 10.8 9.4 64 3.5 NW 28 39 15 21 1010.9 1010.9 0.0
20/09:30am 15.8 10.4 9.5 66 3.3 NNW 28 41 15 22 1010.4 1010.4 0.0
20/09:00am 15.2 9.9 10.0 71 2.7 N 28 39 15 21 1009.8 1009.8 2.8
20/08:30am 14.7 10.7 10.5 76 2.2 N 22 30 12 16 1009.6 1009.6 2.8
20/08:00am 14.1 10.3 11.3 83 1.5 N 22 28 12 15 1009.2 1009.2 2.8
20/07:30am 13.5 10.1 11.4 87 1.1 N 20 30 11 16 1009.0 1009.0 2.8
20/07:00am 13.8 10.5 11.7 87 1.1 N 20 30 11 16 1008.9 1008.9 2.8
20/06:30am 13.9 10.7 11.8 87 1.1 N 20 33 11 18 1008.6 1008.6 2.8
20/06:00am 14.3 10.8 12.2 87 1.1 N 22 30 12 16 1008.5 1008.5 2.8
20/05:30am 14.0 11.1 12.4 90 0.9 N 19 26 10 14 1008.5 1008.5 2.8
20/05:00am 14.1 10.6 12.3 89 1.0 N 22 32 12 17 1008.0 1008.0 2.8
20/04:30am 13.9 10.8 12.3 90 0.9 N 20 30 11 16 1007.9 1007.9 2.8
20/04:00am 14.3 9.7 12.2 87 1.1 N 28 37 15 20 1007.8 1007.8 2.8
20/03:30am 14.4 10.2 12.3 87 1.1 N 26 35 14 19 1007.8 1007.8 2.8
20/03:00am 14.0 9.9 12.6 91 0.8 N 26 35 14 19 1007.6 1007.6 2.8
20/02:30am 14.1 9.6 12.7 91 0.8 N 28 39 15 21 1008.0 1008.0 2.8
20/02:00am 14.5 9.4 12.0 85 1.4 N 30 48 16 26 1007.9 1007.9 2.8
20/01:59am 14.5 9.4 12.0 85 1.4 N 30 48 16 26 1007.9 1007.9 2.8
20/01:30am 14.5 9.5 12.2 86 1.3 NNE 30 41 16 22 1007.5 1007.5 2.8
20/01:00am 14.5 9.0 12.0 85 1.4 N 32 43 17 23 1008.1 1008.1 2.8

Latest Capital City Observations: Canberra | Sydney | Melbourne | Brisbane | Adelaide | Perth | Hobart | Darwin

Other Formats:

Comma delimited format used in spreadsheet applications
http://www.bom.gov.au/fwo/IDV60901/IDV60901.95866.axf

JavaScript Object Notation format (JSON) in row-major order
http://www.bom.gov.au/fwo/IDV60901/IDV60901.95866.json